Terminal Aerodrome Forecast
Issued by NWS Grand Forks, ND

Home | Current Version | Previous Version | Graphics & Text | Print | Product List | Glossary On
Versions: 1 2 3 4 5 6 7 8 9 10 11 12 13 14 15 16 17
086
FTUS43 KFGF 010520
TAFFAR
TAF
KFAR 010520Z 0106/0206 34010KT P6SM OVC008
      TEMPO 0106/0110 5SM -SN OVC012
     FM011700 34011KT P6SM OVC015
     FM011900 34011KT P6SM BKN025=

USA.gov is the U.S. government's official web portal to all federal, state and local government web resources and services.